Data for 07/04/2009

Time Sea-Level Adjusted Pressure Absolute Pressure Temperature Relative Humidity Dew Point   
(mb) (inHg) (mb) (inHg) (C) (F) (%) (C) (F)
00:05 1023 30.21 853 25.19 13 55.3 72 8 46.3
00:10 1023 30.21 853 25.19 13.1 55.6 70 7.7 45.9
00:15 1024 30.24 853 25.19 13.3 56 68 7.6 45.7
00:20 1024 30.24 853 25.19 13.5 56.3 65 7.2 45
00:25 1024 30.24 853 25.19 13.9 56.9 64 7.3 45.1
00:30 1024 30.24 853 25.19 13.6 56.5 66 7.5 45.5
00:35 1024 30.24 853 25.19 13.3 55.9 68 7.5 45.5
00:40 1024 30.24 853 25.19 12.9 55.3 69 7.4 45.3
00:45 1024 30.24 853 25.19 12.7 54.8 69 7.3 45.1
00:50 1024 30.24 853 25.19 12.4 54.3 71 7.3 45.1
00:55 1024 30.24 853 25.19 12.2 54 72 7.3 45.1
01:00 1024 30.24 853 25.19 12.1 53.7 72 7.2 45
01:05 1024 30.24 853 25.19 12.1 53.9 72 7.2 44.9
01:10 1024 30.24 853 25.19 12.4 54.3 70 7.1 44.9
01:15 1024 30.24 853 25.19 12.4 54.3 71 7.2 45
01:20 1024 30.24 853 25.19 12.3 54.1 71 7.2 45
01:25 1024 30.24 853 25.19 12.1 53.8 73 7.4 45.2
01:30 1024 30.24 853 25.19 12 53.6 72 7.2 45
01:35 1024 30.24 853 25.19 12 53.5 74 7.5 45.4
01:40 1024 30.24 853 25.19 11.7 53.1 75 7.4 45.3
01:45 1023 30.21 853 25.19 11.6 52.8 74 7.2 44.9
01:50 1023 30.21 853 25.19 11.6 52.8 74 7.1 44.8
01:55 1023 30.21 853 25.19 11.7 53.1 74 7.2 45
02:00 1023 30.21 853 25.19 11.8 53.2 74 7.2 45
02:05 1023 30.21 852 25.16 11.9 53.4 73 7.3 45.2
02:10 1023 30.21 853 25.19 11.9 53.4 73 7.2 45
02:15 1023 30.21 853 25.19 12 53.6 72 7.2 44.9
02:20 1023 30.21 852 25.16 11.9 53.5 73 7.2 44.9
02:25 1023 30.21 853 25.19 11.8 53.3 73 7.2 44.9
02:30 1023 30.21 853 25.19 11.8 53.2 73 7.1 44.8
02:35 1023 30.21 853 25.19 11.7 53.1 73 7.1 44.7
02:40 1023 30.21 853 25.19 11.8 53.2 72 7 44.5
02:45 1023 30.21 853 25.19 11.7 53.1 73 7 44.6
02:50 1023 30.21 853 25.19 11.7 53 72 6.9 44.4
02:55 1023 30.21 853 25.19 11.8 53.2 72 7 44.6
03:00 1023 30.21 853 25.19 11.7 53 73 7.1 44.7
03:05 1024 30.24 853 25.19 11.7 53.1 73 7.1 44.8
03:10 1024 30.24 853 25.19 11.4 52.5 75 7.1 44.8
03:15 1024 30.24 853 25.19 11.3 52.3 75 7 44.6
03:20 1023 30.21 853 25.19 11.1 52.1 76 7 44.7
03:25 1024 30.24 853 25.19 11.1 52 75 7 44.5
03:30 1024 30.24 853 25.19 11.5 52.7 74 7 44.6
03:35 1024 30.24 853 25.19 11.8 53.2 73 7.2 44.9
03:40 1024 30.24 853 25.19 11.9 53.5 73 7.3 45.1
03:45 1024 30.24 853 25.19 11.8 53.2 74 7.3 45.2
03:50 1024 30.24 853 25.19 11.8 53.3 73 7.2 45
03:55 1024 30.24 853 25.19 11.9 53.3 74 7.3 45.2
04:00 1024 30.24 853 25.19 11.6 53 74 7.3 45.1
04:05 1024 30.24 853 25.19 11.5 52.7 74 7 44.6
04:10 1024 30.24 853 25.19 11.5 52.7 74 7 44.6
04:15 1024 30.24 853 25.19 11.4 52.5 74 7 44.6
04:20 1024 30.24 853 25.19 11.3 52.4 75 7.1 44.7
04:25 1024 30.24 853 25.19 11.3 52.3 75 7 44.7
04:30 1024 30.24 853 25.19 11.3 52.4 75 7.1 44.7
04:35 1024 30.24 853 25.19 11.3 52.3 75 7.1 44.7
04:40 1024 30.24 853 25.19 11.5 52.7 73 6.8 44.3
04:45 1024 30.24 853 25.19 11.5 52.8 74 7.1 44.7
04:50 1024 30.24 853 25.19 11.4 52.5 75 7.1 44.7
04:55 1024 30.24 853 25.19 11.3 52.3 74 6.8 44.3
05:00 1024 30.24 853 25.19 11.4 52.5 74 6.9 44.4
05:05 1024 30.24 853 25.19 11.5 52.7 72 6.7 44
05:10 1024 30.24 853 25.19 11.6 52.8 70 6.2 43.2
05:15 1024 30.24 853 25.19 11.7 53.1 68 6.1 42.9
05:20 1024 30.24 853 25.19 12 53.5 70 6.6 43.9
05:25 1024 30.24 853 25.19 11.8 53.3 72 7 44.6
05:30 1024 30.24 853 25.19 11.7 53 73 7 44.6
05:35 1024 30.24 853 25.19 11.5 52.7 73 7 44.5
05:40 1024 30.24 853 25.19 11.4 52.6 74 7 44.7
05:45 1024 30.24 853 25.19 11.3 52.3 75 7 44.6
05:50 1024 30.24 853 25.19 11.2 52.2 75 7 44.5
05:55 1024 30.24 853 25.19 11.1 51.9 75 6.9 44.4
06:00 1024 30.24 853 25.19 11.1 51.9 75 6.7 44.1
06:05 1024 30.24 853 25.19 11.3 52.3 73 6.7 44.1
06:10 1024 30.24 853 25.19 11.6 52.8 72 6.7 44.1
06:15 1024 30.24 853 25.19 11.7 53 70 6.5 43.8
06:20 1024 30.24 853 25.19 11.6 52.9 71 6.6 44
06:25 1024 30.24 853 25.19 11.6 52.9 71 6.5 43.7
06:30 1024 30.24 853 25.19 11.7 53.1 70 6.5 43.6
06:35 1024 30.24 853 25.19 11.9 53.3 71 6.8 44.3
06:40 1024 30.24 853 25.19 12 53.5 72 7.1 44.8
06:45 1024 30.24 853 25.19 12.4 54.2 71 7.3 45.2
06:50 1024 30.24 853 25.19 12.7 54.8 70 7.3 45.2
06:55 1024 30.24 853 25.19 13.1 55.6 68 7.4 45.4
07:00 1024 30.24 853 25.19 13.4 56 68 7.5 45.5
07:05 1024 30.24 853 25.19 13.5 56.3 67 7.6 45.8
07:10 1024 30.24 853 25.19 13.5 56.4 67 7.7 45.8
07:15 1024 30.24 853 25.19 13.6 56.6 67 7.8 46
07:20 1024 30.24 853 25.19 13.8 56.8 67 7.8 46
07:25 1024 30.24 853 25.19 14.1 57.3 65 7.6 45.6
07:30 1024 30.24 853 25.19 14.4 58 64 7.8 46.1
07:35 1024 30.24 853 25.19 14.6 58.2 63 7.7 45.9
07:40 1024 30.24 853 25.19 14.6 58.2 64 8 46.3
07:45 1024 30.24 853 25.19 14.8 58.7 63 7.9 46.2
07:50 1024 30.24 854 25.22 15 58.9 62 7.9 46.2
07:55 1024 30.24 854 25.22 15 59 64 8.2 46.8
08:00 1024 30.24 854 25.22 15 58.9 65 8.6 47.4
08:05 1024 30.24 854 25.22 14.5 58 70 9.1 48.4
08:10 1024 30.24 854 25.22 13.7 56.6 72 8.9 47.9
08:15 1024 30.24 854 25.22 13.5 56.3 72 8.6 47.4
08:20 1024 30.24 854 25.22 13.3 55.9 70 8 46.4
08:25 1024 30.24 854 25.22 13.7 56.6 69 8 46.5
08:30 1024 30.24 854 25.22 14 57.3 67 8.1 46.6
08:35 1024 30.24 853 25.19 14.6 58.3 65 8.1 46.5
08:40 1024 30.24 853 25.19 15.3 59.5 62 8.1 46.5
08:45 1024 30.24 853 25.19 15.8 60.4 63 8.9 48
08:50 1024 30.24 853 25.19 16.1 60.9 61 8.6 47.5
08:55 1024 30.24 853 25.19 17.1 62.8 58 8.9 48.1
09:00 1024 30.24 853 25.19 17.8 64 56 9.1 48.4
09:05 1024 30.24 853 25.19 17.8 64.1 57 9.3 48.7
09:10 1024 30.24 853 25.19 17.7 63.9 57 9.1 48.4
09:15 1024 30.24 853 25.19 17.7 63.8 56 8.9 48
09:20 1024 30.24 853 25.19 17.8 64.1 56 9 48.2
09:25 1024 30.24 853 25.19 17.9 64.3 56 9 48.2
09:30 1024 30.24 853 25.19 17.7 63.9 56 9 48.2
09:35 1024 30.24 853 25.19 17.6 63.7 56 9 48.1
09:40 1024 30.24 853 25.19 17.7 63.9 56 8.9 48
09:45 1024 30.24 853 25.19 17.7 63.9 56 9 48.3
09:50 1024 30.24 853 25.19 17.7 63.9 56 8.8 47.9
09:55 1024 30.24 853 25.19 17.9 64.2 56 9.1 48.5
10:00 1024 30.24 853 25.19 18.5 65.2 54 9 48.2
10:05 1024 30.24 853 25.19 18.7 65.6 54 9.2 48.5
10:10 1024 30.24 853 25.19 18.9 66 54 9.5 49.1
10:15 1024 30.24 853 25.19 19.7 67.4 51 9.3 48.8
10:20 1024 30.24 853 25.19 19.9 67.7 49 9 48.3
10:25 1024 30.24 853 25.19 19.8 67.6 48 8.6 47.6
10:30 1024 30.24 853 25.19 20 68 47 8.6 47.5
10:35 1024 30.24 853 25.19 20.3 68.5 48 8.9 48
10:40 1024 30.24 853 25.19 20.3 68.6 46 8.6 47.5
10:45 1024 30.24 853 25.19 20.6 69.1 48 9.3 48.7
10:50 1024 30.24 853 25.19 20.4 68.6 50 9.7 49.4
10:55 1024 30.24 853 25.19 20.6 69.1 51 10.1 50.2
11:00 1024 30.24 853 25.19 20.3 68.6 53 10.6 51.1
11:05 1024 30.24 853 25.19 19.8 67.7 52 9.7 49.5
11:10 1024 30.24 853 25.19 20.6 69 50 9.9 49.8
11:15 1024 30.24 853 25.19 20.6 69.1 50 9.9 49.9
11:20 1024 30.24 853 25.19 20.4 68.8 49 9.6 49.2
11:25 1024 30.24 853 25.19 20.4 68.6 50 9.8 49.7
11:30 1024 30.24 853 25.19 21 69.7 48 9.8 49.7
11:35 1023 30.21 853 25.19 21.6 70.9 49 10.7 51.2
11:40 1023 30.21 853 25.19 21.5 70.7 46 9.5 49.1
11:45 1023 30.21 853 25.19 22 71.6 46 10 50
11:50 1023 30.21 853 25.19 21.5 70.7 46 9.6 49.3
11:55 1023 30.21 853 25.19 21.6 70.9 43 8.7 47.6
12:00 1023 30.21 852 25.16 22.4 72.4 42 8.9 48.1
12:05 1023 30.21 852 25.16 22.6 72.7 44 9.8 49.7
12:10 1023 30.21 852 25.16 23.1 73.5 40 9 48.1
12:15 1023 30.21 852 25.16 23.2 73.8 40 9.2 48.5
12:20 1023 30.21 852 25.16 23.3 74 37 7.9 46.2
12:25 1023 30.21 852 25.16 23.1 73.6 39 8.6 47.4
12:30 1023 30.21 852 25.16 23.2 73.8 36 7.7 45.9
12:35 1023 30.21 852 25.16 22.6 72.7 38 7.7 45.8
12:40 1023 30.21 852 25.16 23.2 73.8 36 7.7 45.8
12:45 1023 30.21 852 25.16 23.6 74.5 34 7.1 44.8
12:50 1023 30.21 852 25.16 23.6 74.4 36 7.8 46.1
12:55 1023 30.21 852 25.16 23.1 73.6 37 7.8 46
13:00 1023 30.21 852 25.16 23.3 73.9 34 6.8 44.2
13:05 1023 30.21 852 25.16 23.6 74.5 34 7.2 44.9
13:10 1023 30.21 852 25.16 23.7 74.6 34 7.2 44.9
13:15 1023 30.21 852 25.16 23.7 74.6 35 7.7 45.8
13:20 1023 30.21 852 25.16 24 75.2 34 7.2 45
13:25 1022 30.18 852 25.16 24.2 75.5 33 7.1 44.8
13:30 1022 30.18 852 25.16 24.6 76.2 34 7.9 46.1
13:35 1022 30.18 852 25.16 24.1 75.4 33 7 44.7
13:40 1022 30.18 852 25.16 24.3 75.7 33 7.1 44.8
13:45 1022 30.18 852 25.16 24.5 76.2 31 6.4 43.6
13:50 1022 30.18 852 25.16 25.3 77.5 34 8.7 47.6
13:55 1022 30.18 852 25.16 24.3 75.7 35 8.3 46.9
14:00 1022 30.18 852 25.16 24.7 76.4 32 6.9 44.5
14:05 1022 30.18 852 25.16 24.3 75.7 33 7 44.6
14:10 1022 30.18 852 25.16 24.5 76.1 32 7.1 44.8
14:15 1023 30.21 852 25.16 24.6 76.2 37 9.3 48.8
14:20 1022 30.18 852 25.16 24.3 75.7 37 8.8 47.9
14:25 1022 30.18 852 25.16 23.9 75 38 8.8 47.9
14:30 1022 30.18 852 25.16 23.6 74.5 30 5.1 41.2
14:35 1022 30.18 852 25.16 22.6 72.6 32 5 41.1
14:40 1022 30.18 852 25.16 22 71.6 37 6.8 44.2
14:45 1022 30.18 852 25.16 22.4 72.2 45 10.1 50.1
14:50 1023 30.21 852 25.16 22 71.6 34 5.5 41.9
14:55 1023 30.21 852 25.16 21.1 70 34 4.9 40.8
15:00 1023 30.21 852 25.16 20.4 68.8 38 5.9 42.7
15:05 1023 30.21 852 25.16 19.7 67.5 40 5.8 42.4
15:10 1023 30.21 852 25.16 18.9 66 42 6 42.8
15:15 1023 30.21 852 25.16 18.1 64.5 46 6.3 43.4
15:20 1023 30.21 852 25.16 17.5 63.6 48 6.6 43.8
15:25 1023 30.21 852 25.16 17 62.5 53 7.4 45.4
15:30 1023 30.21 852 25.16 16.4 61.5 62 9.3 48.7
15:35 1023 30.21 852 25.16 16.1 60.9 59 8.1 46.5
15:40 1023 30.21 852 25.16 16.4 61.4 59 8.4 47.1
15:45 1023 30.21 852 25.16 16.4 61.6 57 7.9 46.3
15:50 1023 30.21 852 25.16 16.7 62.1 53 7.2 44.9
15:55 1023 30.21 852 25.16 16.8 62.3 54 7.4 45.4
16:00 1022 30.18 852 25.16 17 62.7 51 6.9 44.5
16:05 1022 30.18 852 25.16 17.6 63.7 46 6 42.7
16:10 1022 30.18 852 25.16 18.4 65.1 44 5.9 42.7
16:15 1023 30.21 852 25.16 19.4 67 44 7.1 44.7
16:20 1023 30.21 852 25.16 19.7 67.4 40 5.9 42.6
16:25 1023 30.21 852 25.16 20.8 69.4 34 4.6 40.2
16:30 1023 30.21 852 25.16 21.5 70.8 31 3.9 39
16:35 1023 30.21 852 25.16 21.2 70.2 31 3.8 38.8
16:40 1022 30.18 852 25.16 22.1 71.7 29 3.6 38.5
16:45 1022 30.18 852 25.16 22.5 72.6 34 6.3 43.3
16:50 1022 30.18 852 25.16 22 71.5 37 7 44.5
16:55 1022 30.18 851 25.13 22 71.6 36 6.4 43.4
17:00 1022 30.18 851 25.13 21.7 71 38 6.9 44.4
17:05 1022 30.18 851 25.13 21.5 70.7 38 6.7 44.1
17:10 1022 30.18 851 25.13 21.9 71.5 36 6.2 43.2
17:15 1022 30.18 851 25.13 21.9 71.4 33 5.1 41.1
17:20 1022 30.18 851 25.13 21.8 71.2 33 4.9 40.8
17:25 1022 30.18 851 25.13 21.9 71.5 34 5.6 42
17:30 1022 30.18 851 25.13 22.2 71.9 34 5.7 42.3
17:35 1022 30.18 851 25.13 22.3 72.2 32 5.1 41.3
17:40 1022 30.18 851 25.13 22.5 72.5 29 4 39.2
17:45 1021 30.15 851 25.13 22.8 73 32 5.4 41.7
17:50 1021 30.15 851 25.13 22.6 72.7 33 5.7 42.3
17:55 1021 30.15 851 25.13 23.1 73.6 32 5.7 42.2
18:00 1021 30.15 851 25.13 23 73.5 31 5.2 41.4
18:05 1021 30.15 851 25.13 22.9 73.2 30 4.6 40.4
18:10 1021 30.15 850 25.1 23 73.5 29 4.3 39.7
18:15 1021 30.15 850 25.1 23 73.4 29 4.2 39.6
18:20 1021 30.15 850 25.1 23 73.3 27 3.4 38
18:25 1021 30.15 850 25.1 23.1 73.5 29 4.4 39.9
18:30 1021 30.15 850 25.1 23.3 74 30 5 41.1
18:35 1021 30.15 850 25.1 23.4 74.1 31 5.6 42.1
18:40 1021 30.15 850 25.1 23.3 73.9 32 5.8 42.4
18:45 1021 30.15 850 25.1 22.9 73.2 33 6 42.8
18:50 1021 30.15 850 25.1 22.2 72 36 6.5 43.7
18:55 1021 30.15 850 25.1 21.8 71.2 36 6.4 43.5
19:00 1021 30.15 850 25.1 21.5 70.7 37 6.4 43.6
19:05 1021 30.15 850 25.1 21.1 70 39 6.8 44.3
19:10 1021 30.15 850 25.1 21 69.9 39 6.8 44.3
19:15 1021 30.15 850 25.1 20.9 69.7 41 7.2 45
19:20 1021 30.15 850 25.1 20.7 69.3 41 7.2 45
19:25 1021 30.15 850 25.1 20.7 69.2 40 6.8 44.2
19:30 1021 30.15 850 25.1 20.6 69.1 42 7.4 45.3
19:35 1021 30.15 850 25.1 20.4 68.8 43 7.4 45.4
19:40 1021 30.15 850 25.1 20.4 68.6 42 7.2 44.9
19:45 1021 30.15 850 25.1 20.4 68.6 42 7.3 45.1
19:50 1021 30.15 850 25.1 20.3 68.6 43 7.4 45.3
19:55 1021 30.15 850 25.1 20.3 68.6 44 7.7 45.8
20:00 1021 30.15 850 25.1 20.2 68.4 44 7.7 45.8
20:05 1021 30.15 850 25.1 20.2 68.3 44 7.5 45.6
20:10 1021 30.15 850 25.1 20.1 68.1 44 7.5 45.5
20:15 1021 30.15 850 25.1 20 68 44 7.4 45.3
20:20 1021 30.15 850 25.1 20 67.9 44 7.4 45.3
20:25 1021 30.15 850 25.1 19.8 67.7 43 7.1 44.8
20:30 1021 30.15 850 25.1 19.7 67.5 44 7.2 44.9
20:35 1021 30.15 850 25.1 19.6 67.3 43 7 44.6
20:40 1021 30.15 850 25.1 19.5 67.2 44 7 44.7
20:45 1021 30.15 850 25.1 19.5 67 44 7.1 44.8
20:50 1021 30.15 850 25.1 19.3 66.7 44 7 44.6
20:55 1021 30.15 850 25.1 19.2 66.5 45 7 44.6
21:00 1021 30.15 850 25.1 19.1 66.3 45 7.1 44.8
21:05 1021 30.15 850 25.1 18.9 66 46 7.1 44.7
21:10 1021 30.15 850 25.1 18.8 65.9 46 6.9 44.5
21:15 1021 30.15 850 25.1 18.8 65.8 46 6.9 44.5
21:20 1021 30.15 850 25.1 18.6 65.5 46 6.9 44.3
21:25 1021 30.15 850 25.1 18.5 65.4 46 6.7 44.1
21:30 1021 30.15 851 25.13 18.4 65.2 46 6.8 44.3
21:35 1021 30.15 851 25.13 18.4 65.1 46 6.8 44.2
21:40 1021 30.15 851 25.13 18.3 65 46 6.7 44.1
21:45 1021 30.15 851 25.13 18.3 64.9 47 6.8 44.2
21:50 1021 30.15 851 25.13 18.2 64.7 47 6.9 44.5
21:55 1021 30.15 851 25.13 18 64.4 48 7 44.6
22:00 1021 30.15 851 25.13 18 64.4 48 6.9 44.4
22:05 1022 30.18 851 25.13 18 64.4 47 6.8 44.2
22:10 1022 30.18 851 25.13 18.1 64.6 48 7 44.6
22:15 1022 30.18 851 25.13 18 64.4 47 6.8 44.2
22:20 1022 30.18 851 25.13 17.9 64.2 49 7 44.7
22:25 1022 30.18 851 25.13 17.7 63.8 49 6.9 44.4
22:30 1022 30.18 851 25.13 17.6 63.7 48 6.7 44.1
22:35 1022 30.18 851 25.13 17.5 63.6 48 6.5 43.7
22:40 1022 30.18 851 25.13 17.5 63.5 49 6.8 44.3
22:45 1022 30.18 851 25.13 17.3 63.2 49 6.7 44.1
22:50 1022 30.18 851 25.13 17.2 62.9 49 6.5 43.7
22:55 1021 30.15 851 25.13 17.4 63.2 47 6.1 43
23:00 1021 30.15 851 25.13 17.4 63.3 47 6.1 43
23:05 1021 30.15 851 25.13 17.3 63.2 48 6.2 43.2
23:10 1021 30.15 851 25.13 17.1 62.9 48 6.1 43
23:15 1021 30.15 851 25.13 17 62.6 49 6.4 43.6
23:20 1021 30.15 851 25.13 16.8 62.2 49 6.1 43
23:25 1021 30.15 851 25.13 16.8 62.3 49 6.3 43.3
23:30 1021 30.15 851 25.13 16.7 62 50 6.2 43.2
23:35 1021 30.15 851 25.13 16.6 61.8 50 6.1 43.1
23:40 1021 30.15 851 25.13 16.6 61.8 50 6.3 43.3
23:45 1021 30.15 851 25.13 16.5 61.6 51 6.4 43.6
23:50 1021 30.15 850 25.1 16.3 61.4 52 6.4 43.6
23:55 1021 30.15 850 25.1 16.2 61.2 52 6.5 43.7
24:00 1021 30.15 850 25.1 16.1 60.9 52 6.5 43.6